This is the latest recevied weather packets stored in our database for station/object NC4M. If no packets are shown the sender has not sent any weather packets the latest 10 day(s).
| Time | Temp. | Humidity | Pressure | Rain* | Wind** | Luminosity | Snow |
|---|---|---|---|---|---|---|---|
| 1787856380 | 28.89° C | 51% | 1018.9 hPa | 0 mm | - | 433 W/m² | - |
| 1787856076 | 28.89° C | 48% | 1018.9 hPa | 0 mm | - | 141 W/m² | - |
| 1787855775 | 28.33° C | 50% | 1019.3 hPa | 0 mm | - | 252 W/m² | - |
| 1787855470 | 27.78° C | 51% | 1019.1 hPa | 0 mm | - | 106 W/m² | - |
| 1787855166 | 27.78° C | 58% | 1019.1 hPa | 0 mm | - | 233 W/m² | - |
| 1787854861 | 28.33° C | 52% | 1018.9 hPa | 0 mm | - | 260 W/m² | - |
| 1787854560 | 28.33° C | 52% | 1018.9 hPa | 0 mm | - | 875 W/m² | - |
| 1787854256 | 28.33° C | 54% | 1019.2 hPa | 0 mm | - | 843 W/m² | - |
| 1787853956 | 28.33° C | 53% | 1019.1 hPa | 0 mm | - | 830 W/m² | - |
| 1787853650 | 27.78° C | 53% | 1019 hPa | 0 mm | - | 825 W/m² | - |
| 1787853349 | 26.67° C | 59% | 1019.1 hPa | 0 mm | - | 816 W/m² | - |
| 1787853044 | 27.22° C | 59% | 1019.3 hPa | 0 mm | - | 120 W/m² | - |
| 1787852744 | 28.33° C | 53% | 1019.2 hPa | 0 mm | - | 235 W/m² | - |
| 1787852443 | 28.33° C | 53% | 1019 hPa | 0 mm | - | 897 W/m² | - |
| 1787852138 | 28.33° C | 52% | 1019.3 hPa | 0 mm | - | 856 W/m² | - |
| 1787851833 | 28.33° C | 50% | 1019.2 hPa | 0 mm | - | 861 W/m² | - |
| 1787851532 | 28.89° C | 52% | 1019.5 hPa | 0 mm | - | 195 W/m² | - |
| 1787851232 | 28.33° C | 53% | 1019.5 hPa | 0 mm | - | 849 W/m² | - |
| 1787850928 | 27.78° C | 59% | 1019.4 hPa | 0 mm | - | 837 W/m² | - |
| 1787850624 | 27.78° C | 56% | 1019.4 hPa | 0 mm | - | 399 W/m² | - |
| 1787850319 | 28.33° C | 54% | 1019.7 hPa | 0 mm | - | 144 W/m² | - |
| 1787850015 | 28.33° C | 54% | 1019.6 hPa | 0 mm | - | 151 W/m² | - |
| 1787849708 | 28.33° C | 57% | 1019.2 hPa | 0 mm | - | 821 W/m² | - |
| 1787849403 | 27.78° C | 57% | 1019.3 hPa | 0 mm | - | 810 W/m² | - |
| 1787849101 | 28.33° C | 59% | 1019.5 hPa | 0 mm | - | 787 W/m² | - |
* Rain latest hour (hover to see other rain measurements)
** Current wind speed in m/s (hover to see current wind gust speed)